Time;durP1;ratioP1;P1;durP2;ratioP2;P2;SDS_P1;SDS_P2;PMS_P1;PMS_P2;Temp;Humidity;BMP_temperature;BMP_pressure;BME280_temperature;BME280_humidity;BME280_pressure;Samples;Min_cycle;Max_cycle;Signal;HPM_P1;HPM_P2
2023/11/05 00:00:29;;;;;;;1.30;1.03;;;8.70;1.00;;;;;;5098885;28;20181;-42
2023/11/05 00:02:55;;;;;;;3.33;0.63;;;8.70;1.00;;;;;;5098023;28;20183;-40
2023/11/05 00:05:21;;;;;;;0.97;0.53;;;8.70;1.00;;;;;;5096494;28;20207;-44
2023/11/05 00:07:47;;;;;;;1.30;0.47;;;8.70;1.00;;;;;;5098095;28;20192;-40
2023/11/05 00:10:12;;;;;;;0.90;0.60;;;8.70;1.00;;;;;;5098779;28;20208;-42
2023/11/05 00:12:38;;;;;;;1.17;0.40;;;8.70;1.00;;;;;;5097380;28;20291;-41
2023/11/05 00:15:08;;;;;;;1.10;0.60;;;8.70;1.00;;;;;;5096722;28;20189;-40
2023/11/05 00:17:33;;;;;;;0.90;0.50;;;8.70;99.90;;;;;;5095729;28;20244;-40
2023/11/05 00:20:00;;;;;;;0.80;0.40;;;8.70;99.90;;;;;;5078387;28;20434;-41
2023/11/05 00:22:25;;;;;;;3.83;0.70;;;8.70;99.90;;;;;;5097163;28;20431;-40
2023/11/05 00:24:51;;;;;;;1.30;0.60;;;8.70;99.90;;;;;;5097238;28;20433;-39
2023/11/05 00:27:17;;;;;;;0.87;0.43;;;8.80;99.90;;;;;;5098050;28;20277;-40
2023/11/05 00:29:42;;;;;;;1.93;0.40;;;8.70;99.90;;;;;;5098774;28;20187;-41
2023/11/05 00:32:09;;;;;;;1.37;0.50;;;8.70;99.90;;;;;;5079060;28;20261;-40
2023/11/05 00:34:35;;;;;;;0.90;0.50;;;8.80;99.90;;;;;;5098031;28;20277;-44
2023/11/05 00:37:00;;;;;;;0.77;0.40;;;8.80;99.90;;;;;;5097627;28;20657;-41
2023/11/05 00:39:26;;;;;;;1.00;0.50;;;8.80;82.00;;;;;;5095840;28;20688;-39
2023/11/05 00:41:52;;;;;;;0.97;0.40;;;8.80;99.90;;;;;;5096889;28;20184;-43
2023/11/05 00:44:17;;;;;;;0.70;0.40;;;8.70;99.90;;;;;;5097957;28;20176;-40
2023/11/05 00:46:43;;;;;;;2.03;0.40;;;8.70;99.90;;;;;;5098401;28;20192;-41
2023/11/05 00:49:10;;;;;;;1.00;0.50;;;8.70;99.90;;;;;;5096678;28;20189;-40
2023/11/05 00:51:35;;;;;;;1.23;0.67;;;8.80;18.20;;;;;;5096721;28;20185;-41
2023/11/05 00:54:01;;;;;;;1.40;0.60;;;8.80;11.90;;;;;;5096532;28;20437;-39
2023/11/05 00:56:27;;;;;;;1.90;0.57;;;8.90;1.00;;;;;;5094003;28;20202;-42
2023/11/05 00:58:52;;;;;;;1.63;0.43;;;8.90;1.00;;;;;;5077152;28;20189;-41
2023/11/05 01:01:18;;;;;;;0.70;0.30;;;8.90;1.00;;;;;;5096212;28;20605;-41
2023/11/05 01:03:44;;;;;;;1.90;0.50;;;8.90;1.00;;;;;;5087013;28;20475;-40
2023/11/05 01:06:09;;;;;;;1.07;0.60;;;8.90;1.00;;;;;;5098161;28;20188;-40
2023/11/05 01:08:35;;;;;;;2.20;0.73;;;8.80;1.00;;;;;;5098316;28;20218;-42
2023/11/05 01:11:00;;;;;;;2.50;0.50;;;8.80;19.90;;;;;;5097925;28;20223;-41
2023/11/05 01:13:27;;;;;;;2.60;1.43;;;8.80;1.00;;;;;;5097293;28;20220;-40
2023/11/05 01:15:52;;;;;;;1.67;0.50;;;8.90;1.00;;;;;;5095559;28;20172;-40
2023/11/05 01:18:18;;;;;;;1.43;0.60;;;8.80;1.00;;;;;;5096960;28;20681;-40
2023/11/05 01:20:44;;;;;;;1.13;0.50;;;8.80;1.00;;;;;;5096931;28;20181;-39
2023/11/05 01:23:09;;;;;;;1.00;0.50;;;8.90;1.00;;;;;;5097023;28;20215;-39
2023/11/05 01:25:35;;;;;;;0.90;0.50;;;8.90;1.00;;;;;;5097304;28;20519;-41
2023/11/05 01:28:01;;;;;;;1.30;0.50;;;8.90;1.00;;;;;;5096058;28;20287;-41
2023/11/05 01:30:26;;;;;;;1.03;0.40;;;9.00;99.90;;;;;;5096856;28;20248;-40
2023/11/05 01:32:52;;;;;;;2.60;0.60;;;8.90;99.90;;;;;;5098741;28;20193;-41
2023/11/05 01:35:18;;;;;;;1.03;0.53;;;8.90;99.90;;;;;;5098039;28;20196;-40
2023/11/05 01:37:44;;;;;;;1.10;0.47;;;8.90;99.90;;;;;;5096703;28;20262;-41
2023/11/05 01:40:10;;;;;;;1.03;0.50;;;8.90;99.90;;;;;;5097274;28;20485;-41
2023/11/05 01:42:36;;;;;;;1.77;0.67;;;8.90;99.90;;;;;;5096037;28;20181;-40
2023/11/05 01:45:03;;;;;;;1.90;0.67;;;8.90;99.90;;;;;;5096820;28;20445;-43
2023/11/05 01:47:29;;;;;;;0.90;0.40;;;8.90;99.90;;;;;;5097331;28;20188;-41
2023/11/05 01:49:54;;;;;;;2.30;0.77;;;8.90;99.90;;;;;;5078524;28;20429;-39
2023/11/05 01:52:21;;;;;;;1.70;0.60;;;8.90;99.90;;;;;;5097598;28;20261;-40
2023/11/05 01:54:47;;;;;;;1.20;0.53;;;9.00;99.90;;;;;;5078058;28;20426;-42
2023/11/05 01:57:14;;;;;;;0.73;0.40;;;9.00;62.30;;;;;;5096133;28;20958;-42
2023/11/05 01:59:39;;;;;;;2.30;0.70;;;9.00;1.00;;;;;;5095878;28;20510;-41
2023/11/05 02:02:07;;;;;;;1.10;0.70;;;9.10;1.00;;;;;;5096789;28;20746;-40
2023/11/05 02:04:34;;;;;;;1.70;0.43;;;9.10;1.00;;;;;;5095979;28;20268;-39
2023/11/05 02:06:59;;;;;;;0.90;0.50;;;9.10;1.00;;;;;;5096913;28;20434;-39
2023/11/05 02:09:25;;;;;;;2.70;0.60;;;9.10;99.90;;;;;;5089590;28;20818;-40
2023/11/05 02:11:51;;;;;;;1.40;1.00;;;9.10;99.90;;;;;;5092373;28;20582;-41
2023/11/05 02:14:16;;;;;;;2.20;0.63;;;9.20;99.90;;;;;;5095980;28;20196;-40
2023/11/05 02:16:42;;;;;;;4.83;0.63;;;9.20;1.00;;;;;;5094597;28;20578;-40
2023/11/05 02:19:08;;;;;;;1.00;0.30;;;9.20;1.00;;;;;;5094431;28;20223;-43
2023/11/05 02:21:47;;;;;;;1.77;0.53;;;9.20;1.00;;;;;;5095488;28;20530;-40
2023/11/05 02:24:13;;;;;;;3.37;1.17;;;9.30;1.00;;;;;;5077500;28;20472;-39
2023/11/05 02:26:39;;;;;;;2.60;0.70;;;9.30;99.90;;;;;;5096494;28;20813;-42
2023/11/05 02:29:05;;;;;;;2.70;0.90;;;9.30;55.90;;;;;;5095366;28;20188;-39
2023/11/05 02:31:30;;;;;;;1.80;0.50;;;9.30;1.00;;;;;;5095505;28;20430;-38
2023/11/05 02:33:56;;;;;;;1.67;0.80;;;9.40;99.90;;;;;;5093867;28;20437;-42
2023/11/05 02:36:22;;;;;;;1.63;0.57;;;9.50;99.90;;;;;;5075892;28;20242;-39
2023/11/05 02:38:47;;;;;;;1.20;0.50;;;9.50;99.90;;;;;;5094088;28;20177;-43
2023/11/05 02:41:13;;;;;;;4.80;0.90;;;9.50;1.00;;;;;;5095507;28;20264;-40
2023/11/05 02:43:39;;;;;;;2.20;0.80;;;9.50;1.00;;;;;;5095165;28;20496;-40
2023/11/05 02:46:06;;;;;;;3.00;0.77;;;9.60;1.00;;;;;;5094014;28;20460;-41
2023/11/05 02:48:35;;;;;;;3.63;0.70;;;9.60;99.90;;;;;;5076845;28;20532;-37
2023/11/05 02:51:01;;;;;;;2.77;0.70;;;9.60;99.90;;;;;;5094337;28;20476;-40
2023/11/05 02:53:26;;;;;;;4.33;0.90;;;9.60;41.40;;;;;;5093407;28;20438;-43
2023/11/05 02:55:52;;;;;;;2.10;0.60;;;9.70;1.00;;;;;;5093492;28;20187;-38
2023/11/05 02:58:18;;;;;;;2.90;1.10;;;9.70;1.00;;;;;;5093346;28;20754;-41
2023/11/05 03:00:44;;;;;;;2.77;0.63;;;9.70;1.00;;;;;;5094868;28;20283;-37
2023/11/05 03:03:11;;;;;;;3.00;1.20;;;9.70;1.00;;;;;;5095624;28;20187;-38
2023/11/05 03:05:40;;;;;;;2.13;0.67;;;9.70;99.90;;;;;;5077360;28;20418;-43
2023/11/05 03:08:05;;;;;;;3.27;0.90;;;9.70;1.00;;;;;;5095974;28;20422;-38
2023/11/05 03:10:31;;;;;;;2.90;0.90;;;9.70;99.90;;;;;;5095111;28;20549;-39
2023/11/05 03:12:56;;;;;;;2.40;0.80;;;9.70;99.90;;;;;;5061594;28;20584;-39
2023/11/05 03:15:23;;;;;;;1.57;0.80;;;9.60;99.90;;;;;;5095986;28;20275;-40
2023/11/05 03:17:49;;;;;;;2.30;0.67;;;9.60;99.90;;;;;;5076991;28;20302;-38
2023/11/05 03:20:15;;;;;;;2.77;0.90;;;9.70;99.90;;;;;;5095893;28;20726;-41
2023/11/05 03:22:42;;;;;;;1.97;0.70;;;9.80;55.10;;;;;;5098942;28;20427;-40
2023/11/05 03:25:10;;;;;;;3.20;0.93;;;9.80;39.80;;;;;;5098976;28;20555;-39
2023/11/05 03:27:36;;;;;;;7.70;1.40;;;9.80;1.00;;;;;;5097950;28;20436;-40
2023/11/05 03:30:05;;;;;;;5.27;1.20;;;9.80;1.00;;;;;;5095681;28;20549;-39
2023/11/05 03:32:31;;;;;;;2.70;0.77;;;9.80;1.00;;;;;;5094774;28;20793;-37
2023/11/05 03:34:57;;;;;;;2.70;0.70;;;9.70;11.60;;;;;;5099738;28;20519;-38
2023/11/05 03:37:23;;;;;;;5.40;0.70;;;9.70;81.90;;;;;;5099959;28;20470;-48
2023/11/05 03:39:49;;;;;;;1.13;0.50;;;9.70;76.80;;;;;;5098226;28;20547;-37
2023/11/05 03:42:15;;;;;;;4.17;0.87;;;9.70;11.30;;;;;;5099267;28;20180;-39
2023/11/05 03:44:41;;;;;;;3.67;1.10;;;9.70;50.50;;;;;;5098703;28;20173;-41
2023/11/05 03:47:06;;;;;;;2.00;0.90;;;9.70;19.90;;;;;;5098071;28;20539;-37
2023/11/05 03:49:32;;;;;;;2.50;0.93;;;9.80;1.00;;;;;;5098416;28;20498;-40
2023/11/05 03:51:58;;;;;;;3.63;0.73;;;9.70;1.00;;;;;;5098265;28;20184;-40
2023/11/05 03:54:24;;;;;;;2.80;1.17;;;9.70;1.00;;;;;;5097853;28;20201;-39
2023/11/05 03:56:50;;;;;;;1.60;0.67;;;9.70;1.00;;;;;;5097960;28;20458;-39
2023/11/05 03:59:16;;;;;;;3.37;0.80;;;9.70;1.00;;;;;;5098205;28;20437;-38
2023/11/05 04:01:41;;;;;;;2.23;0.70;;;9.70;5.80;;;;;;5098484;28;20256;-38
2023/11/05 04:04:10;;;;;;;6.57;1.00;;;9.60;69.10;;;;;;5098129;28;20200;-40
2023/11/05 04:06:35;;;;;;;5.50;0.90;;;9.60;92.50;;;;;;5081080;28;20196;-38
2023/11/05 04:09:01;;;;;;;3.60;0.83;;;9.60;52.90;;;;;;5095764;28;20442;-42
2023/11/05 04:11:27;;;;;;;2.13;0.60;;;9.70;57.00;;;;;;5094628;28;20176;-39
2023/11/05 04:13:53;;;;;;;2.03;1.10;;;9.70;94.10;;;;;;5099167;28;20496;-40
2023/11/05 04:16:18;;;;;;;2.70;0.90;;;9.60;99.90;;;;;;5080507;28;20442;-41
2023/11/05 04:18:44;;;;;;;4.70;1.10;;;9.60;99.90;;;;;;5098901;28;20626;-40
2023/11/05 04:21:10;;;;;;;2.10;0.77;;;9.60;99.90;;;;;;5099005;28;20458;-39
2023/11/05 04:23:36;;;;;;;2.60;0.80;;;9.60;99.90;;;;;;5099172;28;20403;-38
2023/11/05 04:26:03;;;;;;;3.00;1.03;;;9.60;99.90;;;;;;5097753;28;20181;-39
2023/11/05 04:28:29;;;;;;;2.83;1.07;;;9.60;99.90;;;;;;5098640;28;20216;-38
2023/11/05 04:30:55;;;;;;;1.50;0.70;;;9.60;99.90;;;;;;5099635;28;20465;-37
2023/11/05 04:33:20;;;;;;;3.67;1.17;;;9.70;99.90;;;;;;5092896;28;20643;-38
2023/11/05 04:35:46;;;;;;;1.63;0.70;;;9.70;98.60;;;;;;5095456;28;20208;-40
2023/11/05 04:38:11;;;;;;;4.63;0.90;;;9.70;99.90;;;;;;5079849;28;20244;-41
2023/11/05 04:40:37;;;;;;;1.53;0.60;;;9.70;99.90;;;;;;5098078;28;20270;-39
2023/11/05 04:43:03;;;;;;;1.80;0.77;;;9.60;99.90;;;;;;5099102;28;20239;-38
2023/11/05 04:45:30;;;;;;;4.13;1.03;;;9.60;99.90;;;;;;5080307;28;20195;-41
2023/11/05 04:47:56;;;;;;;2.50;0.80;;;9.60;99.90;;;;;;5098064;28;20735;-38
2023/11/05 04:50:22;;;;;;;5.53;1.00;;;9.60;99.90;;;;;;5098084;28;20491;-40
2023/11/05 04:52:52;;;;;;;2.93;1.17;;;9.60;99.90;;;;;;5098004;28;20356;-40
2023/11/05 04:55:18;;;;;;;2.50;0.90;;;9.60;99.90;;;;;;5098531;28;20188;-38
2023/11/05 04:57:43;;;;;;;4.60;1.10;;;9.70;99.90;;;;;;5097641;28;20886;-39
2023/11/05 05:00:09;;;;;;;2.70;0.70;;;9.60;99.90;;;;;;5098221;28;20188;-38
2023/11/05 05:02:35;;;;;;;3.43;0.70;;;9.60;1.00;;;;;;5098363;28;20308;-39
2023/11/05 05:05:01;;;;;;;3.60;0.70;;;9.60;1.00;;;;;;5079428;28;20476;-38
2023/11/05 05:07:26;;;;;;;2.43;0.90;;;9.60;1.00;;;;;;5096990;28;20601;-39
2023/11/05 05:09:52;;;;;;;2.07;0.80;;;9.60;1.00;;;;;;5097444;28;20204;-39
2023/11/05 05:12:18;;;;;;;2.33;0.70;;;9.60;1.00;;;;;;5098099;28;20483;-38
2023/11/05 05:14:44;;;;;;;2.13;0.77;;;9.60;1.00;;;;;;5097516;28;20430;-38
2023/11/05 05:17:10;;;;;;;1.83;1.00;;;9.60;18.20;;;;;;5097095;28;20208;-40
2023/11/05 05:19:36;;;;;;;4.23;0.80;;;9.60;51.60;;;;;;5096828;28;20180;-40
2023/11/05 05:22:02;;;;;;;3.03;0.90;;;9.60;99.90;;;;;;5098209;28;20519;-40
2023/11/05 05:24:28;;;;;;;2.30;1.47;;;9.60;99.90;;;;;;5090796;28;20581;-39
2023/11/05 05:26:54;;;;;;;5.67;1.30;;;9.60;99.90;;;;;;5096856;28;20418;-39
2023/11/05 05:29:20;;;;;;;1.77;0.70;;;9.50;1.00;;;;;;5097502;28;20430;-39
2023/11/05 05:31:45;;;;;;;3.03;0.67;;;9.50;1.00;;;;;;5098038;28;20188;-38
2023/11/05 05:34:11;;;;;;;3.50;0.90;;;9.50;1.00;;;;;;5097754;28;20294;-39
2023/11/05 05:36:40;;;;;;;1.60;1.10;;;9.40;99.90;;;;;;5098146;28;20295;-38
2023/11/05 05:39:07;;;;;;;1.53;0.70;;;9.40;99.90;;;;;;5096690;28;20239;-38
2023/11/05 05:41:33;;;;;;;1.37;0.60;;;9.30;1.00;;;;;;5096995;28;20411;-39
2023/11/05 05:43:58;;;;;;;2.17;0.80;;;9.30;1.00;;;;;;5096663;28;20740;-39
2023/11/05 05:46:24;;;;;;;3.00;0.80;;;9.30;1.00;;;;;;5095546;28;20490;-39
2023/11/05 05:48:50;;;;;;;1.47;0.83;;;9.30;62.40;;;;;;5079018;28;20279;-39
2023/11/05 05:51:17;;;;;;;3.07;0.97;;;9.20;99.90;;;;;;5096287;28;20196;-38
2023/11/05 05:53:43;;;;;;;2.20;0.73;;;9.30;99.90;;;;;;5096099;28;20190;-38
2023/11/05 05:56:09;;;;;;;5.17;1.00;;;9.30;99.90;;;;;;5096339;28;20414;-38
2023/11/05 05:58:35;;;;;;;2.67;0.93;;;9.30;1.00;;;;;;5079297;28;20430;-40
2023/11/05 06:01:01;;;;;;;2.37;0.60;;;9.30;1.00;;;;;;5096838;28;20431;-40
2023/11/05 06:03:27;;;;;;;3.57;0.93;;;9.20;1.00;;;;;;5096520;28;20537;-39
2023/11/05 06:05:52;;;;;;;1.10;0.50;;;9.30;1.00;;;;;;5096030;28;20423;-41
2023/11/05 06:08:18;;;;;;;3.17;0.67;;;9.30;1.00;;;;;;5096807;28;20188;-38
2023/11/05 06:10:44;;;;;;;1.40;0.67;;;9.30;1.00;;;;;;5096117;28;20184;-41
2023/11/05 06:13:10;;;;;;;1.77;0.60;;;9.30;1.00;;;;;;5095383;28;20267;-38
2023/11/05 06:15:36;;;;;;;2.50;1.20;;;9.30;1.00;;;;;;5076463;28;20861;-38
2023/11/05 06:18:02;;;;;;;1.17;0.53;;;9.30;1.00;;;;;;5094959;28;20250;-41
2023/11/05 06:20:27;;;;;;;1.30;0.50;;;9.30;1.00;;;;;;5094488;28;20181;-39
2023/11/05 06:22:54;;;;;;;1.70;0.60;;;9.30;1.00;;;;;;5094741;28;20279;-40
2023/11/05 06:25:19;;;;;;;2.40;0.70;;;9.30;27.10;;;;;;5095967;28;20188;-40
2023/11/05 06:27:45;;;;;;;1.33;0.60;;;9.30;99.90;;;;;;5095275;28;20547;-39
2023/11/05 06:30:11;;;;;;;2.37;0.60;;;9.40;99.90;;;;;;5095533;28;20223;-39
2023/11/05 06:32:38;;;;;;;1.63;0.47;;;9.30;99.90;;;;;;5096116;28;20858;-42
2023/11/05 06:35:04;;;;;;;1.53;0.33;;;9.30;1.00;;;;;;5095337;28;20502;-41
2023/11/05 06:37:30;;;;;;;2.90;0.60;;;9.40;1.00;;;;;;5095744;28;20474;-38
2023/11/05 06:39:57;;;;;;;1.77;0.70;;;9.40;1.00;;;;;;5086504;28;20232;-40
2023/11/05 06:42:22;;;;;;;1.50;0.53;;;9.30;1.00;;;;;;5093969;28;20465;-42
2023/11/05 06:44:48;;;;;;;1.60;0.80;;;9.40;1.00;;;;;;5094999;28;20839;-38
2023/11/05 06:47:14;;;;;;;1.57;0.80;;;9.40;1.00;;;;;;5093759;28;20533;-39
2023/11/05 06:49:39;;;;;;;0.80;0.43;;;9.40;1.00;;;;;;5094069;28;20188;-40
2023/11/05 06:52:05;;;;;;;1.30;0.50;;;9.40;1.00;;;;;;5094387;28;20196;-38
2023/11/05 06:54:31;;;;;;;1.00;0.50;;;9.40;93.50;;;;;;5094324;28;20225;-39
2023/11/05 06:56:57;;;;;;;1.97;0.60;;;9.40;99.90;;;;;;5076266;28;20219;-39
2023/11/05 06:59:23;;;;;;;1.83;0.77;;;9.50;99.90;;;;;;5093671;28;20415;-40
2023/11/05 07:01:49;;;;;;;1.80;0.53;;;9.40;99.90;;;;;;5095075;28;20462;-38
2023/11/05 07:04:15;;;;;;;1.73;0.60;;;9.50;94.90;;;;;;5077860;28;20534;-38
2023/11/05 07:06:41;;;;;;;1.93;0.63;;;9.50;65.40;;;;;;5095772;28;20529;-39
2023/11/05 07:09:08;;;;;;;1.00;0.50;;;9.50;99.90;;;;;;5095452;28;20461;-40
2023/11/05 07:11:34;;;;;;;2.30;0.50;;;9.50;99.90;;;;;;5096205;28;20705;-41
2023/11/05 07:14:00;;;;;;;0.70;0.33;;;9.50;99.90;;;;;;5095121;28;20492;-41
2023/11/05 07:16:26;;;;;;;1.00;0.43;;;9.50;99.90;;;;;;5094800;28;20852;-39
2023/11/05 07:18:53;;;;;;;0.90;0.53;;;9.50;99.90;;;;;;5095704;28;20460;-40
2023/11/05 07:21:19;;;;;;;1.23;0.70;;;9.70;99.90;;;;;;5077165;28;20488;-39
2023/11/05 07:23:45;;;;;;;1.73;0.50;;;9.90;99.90;;;;;;5077402;28;20502;-38
2023/11/05 07:26:13;;;;;;;1.63;0.70;;;10.20;1.00;;;;;;5088148;28;20878;-37
2023/11/05 07:28:39;;;;;;;3.53;0.60;;;10.60;1.00;;;;;;5093303;28;20196;-38
2023/11/05 07:31:05;;;;;;;1.00;0.60;;;11.10;1.00;;;;;;5094899;28;20703;-38
2023/11/05 07:33:31;;;;;;;0.87;0.40;;;11.40;1.00;;;;;;5077112;28;20211;-39
2023/11/05 07:35:59;;;;;;;1.23;0.60;;;11.10;1.00;;;;;;5076506;28;20686;-42
2023/11/05 07:38:26;;;;;;;1.43;0.43;;;10.90;1.00;;;;;;5095838;28;20222;-39
2023/11/05 07:40:52;;;;;;;1.13;0.50;;;10.80;99.90;;;;;;5095624;28;20474;-38
2023/11/05 07:43:18;;;;;;;1.23;0.50;;;11.00;1.00;;;;;;5095516;28;20856;-36
2023/11/05 07:45:44;;;;;;;1.20;0.60;;;11.20;9.30;;;;;;5094938;28;20524;-39
2023/11/05 07:48:09;;;;;;;1.90;0.60;;;11.50;99.90;;;;;;5096075;28;20201;-38
2023/11/05 07:50:36;;;;;;;0.93;0.40;;;11.80;1.00;;;;;;5095825;28;20574;-38
2023/11/05 07:53:01;;;;;;;1.20;0.70;;;12.00;99.90;;;;;;5096512;28;20215;-38
2023/11/05 07:55:27;;;;;;;2.80;0.70;;;12.20;99.90;;;;;;5095633;28;20801;-39
2023/11/05 07:57:52;;;;;;;1.03;0.43;;;12.60;1.00;;;;;;5094145;28;20477;-37
2023/11/05 08:00:18;;;;;;;1.00;0.50;;;12.80;1.00;;;;;;5075961;28;20181;-40
2023/11/05 08:02:46;;;;;;;2.00;0.47;;;12.70;1.00;;;;;;5074808;28;20212;-40
2023/11/05 08:05:12;;;;;;;1.37;0.60;;;12.30;1.00;;;;;;5071686;28;20437;-39
2023/11/05 08:07:37;;;;;;;1.30;0.70;;;12.20;99.90;;;;;;5091248;28;20517;-40
2023/11/05 08:10:06;;;;;;;2.20;0.63;;;11.80;1.00;;;;;;5094091;28;20192;-38
2023/11/05 08:12:33;;;;;;;2.20;0.60;;;11.80;1.00;;;;;;5094462;28;20586;-39
2023/11/05 08:14:58;;;;;;;1.10;0.40;;;12.30;99.90;;;;;;5095110;28;20422;-38
2023/11/05 08:17:24;;;;;;;1.37;0.40;;;12.60;1.00;;;;;;5096191;28;20979;-39
2023/11/05 08:19:50;;;;;;;4.20;0.77;;;12.30;99.90;;;;;;5096945;28;20457;-38
2023/11/05 08:22:18;;;;;;;0.90;0.57;;;11.90;1.00;;;;;;5096315;28;20501;-43
2023/11/05 08:24:45;;;;;;;1.60;0.60;;;11.50;1.00;;;;;;5095711;28;20183;-40
2023/11/05 08:27:11;;;;;;;1.60;0.70;;;11.30;1.00;;;;;;5096962;28;20531;-41
2023/11/05 08:29:39;;;;;;;1.67;0.63;;;11.10;1.00;;;;;;5095776;28;20511;-44
2023/11/05 08:32:06;;;;;;;3.60;0.60;;;11.10;99.90;;;;;;5095252;28;20461;-39
2023/11/05 08:34:35;;;;;;;1.57;0.47;;;11.30;1.00;;;;;;5095914;28;20438;-41
2023/11/05 08:37:02;;;;;;;1.00;0.50;;;11.90;1.00;;;;;;5096105;28;20461;-40
2023/11/05 08:39:30;;;;;;;1.10;0.43;;;12.90;99.90;;;;;;5093812;28;20535;-40
2023/11/05 08:41:56;;;;;;;1.73;0.30;;;13.90;1.00;;;;;;5096604;28;20415;-39
2023/11/05 08:44:22;;;;;;;0.93;0.40;;;14.10;1.00;;;;;;5097288;28;20574;-42
2023/11/05 08:46:48;;;;;;;3.00;0.50;;;13.50;1.00;;;;;;5096112;28;20723;-40
2023/11/05 08:49:14;;;;;;;3.97;0.50;;;12.60;1.00;;;;;;5096772;28;20673;-39
2023/11/05 08:51:39;;;;;;;1.00;0.40;;;11.90;99.90;;;;;;5096567;28;20436;-39
2023/11/05 08:54:05;;;;;;;3.00;0.60;;;11.50;99.90;;;;;;5096317;28;20566;-39
2023/11/05 08:56:31;;;;;;;1.40;0.43;;;11.50;40.30;;;;;;5095607;28;20212;-39
2023/11/05 08:58:56;;;;;;;0.80;0.40;;;12.10;1.00;;;;;;5095715;28;20200;-39
2023/11/05 09:01:22;;;;;;;1.47;0.50;;;12.90;1.00;;;;;;5095985;28;20231;-37
2023/11/05 09:03:48;;;;;;;0.80;0.40;;;13.80;1.00;;;;;;5094873;28;20542;-39
2023/11/05 09:06:15;;;;;;;1.97;0.50;;;14.20;1.00;;;;;;5096396;28;20177;-39
2023/11/05 09:08:41;;;;;;;1.57;0.40;;;14.50;99.90;;;;;;5094016;28;20249;-39
2023/11/05 09:11:07;;;;;;;0.97;0.37;;;14.70;99.90;;;;;;5094051;28;20431;-39
2023/11/05 09:13:34;;;;;;;1.87;0.60;;;14.10;99.90;;;;;;5093865;28;20224;-41
2023/11/05 09:15:59;;;;;;;1.60;0.50;;;14.10;99.90;;;;;;5076072;28;20816;-40
2023/11/05 09:18:26;;;;;;;1.03;0.33;;;14.20;99.90;;;;;;5094565;28;20531;-40
2023/11/05 09:20:52;;;;;;;2.40;0.63;;;14.30;99.90;;;;;;5096313;28;20189;-39
2023/11/05 09:23:18;;;;;;;1.13;0.50;;;14.40;99.90;;;;;;5078843;28;20423;-40
2023/11/05 09:25:43;;;;;;;1.63;0.40;;;14.70;99.90;;;;;;5094951;28;20795;-38
2023/11/05 09:28:09;;;;;;;1.00;0.40;;;14.40;99.90;;;;;;5092134;28;20538;-40
2023/11/05 09:30:35;;;;;;;1.00;0.40;;;14.40;99.90;;;;;;5092611;28;20221;-39
2023/11/05 09:33:00;;;;;;;1.73;0.40;;;14.00;99.90;;;;;;5096255;28;20184;-39
2023/11/05 09:35:26;;;;;;;2.10;0.50;;;13.50;99.90;;;;;;5095347;28;20213;-39
2023/11/05 09:37:53;;;;;;;1.00;0.40;;;13.30;99.90;;;;;;5087702;28;20321;-39
2023/11/05 09:40:19;;;;;;;1.97;0.50;;;13.00;99.90;;;;;;5073784;28;20486;-41
2023/11/05 09:43:01;;;;;;;2.00;0.60;;;12.40;1.00;;;;;;5091177;28;20812;-40
2023/11/05 09:45:28;;;;;;;0.90;0.50;;;11.80;1.00;;;;;;5094164;28;20433;-41
2023/11/05 09:47:55;;;;;;;1.10;0.57;;;11.40;1.00;;;;;;5096123;28;20720;-39
2023/11/05 09:50:21;;;;;;;1.57;0.90;;;11.50;99.90;;;;;;5095243;28;20439;-40
2023/11/05 09:52:47;;;;;;;1.83;0.70;;;11.70;1.00;;;;;;5094911;28;20486;-44
2023/11/05 09:55:12;;;;;;;2.57;0.67;;;11.90;99.90;;;;;;5092746;28;20523;-41
2023/11/05 09:57:38;;;;;;;0.83;0.50;;;11.90;99.90;;;;;;5095276;28;20220;-41
2023/11/05 10:00:09;;;;;;;1.23;0.70;;;11.70;1.00;;;;;;5095788;28;20283;-40
2023/11/05 10:02:55;;;;;;;1.30;0.50;;;11.40;1.00;;;;;;5092668;28;20444;-40
2023/11/05 10:05:22;;;;;;;1.00;0.40;;;11.10;99.90;;;;;;5093635;28;20734;-41
2023/11/05 10:07:48;;;;;;;2.43;0.57;;;11.10;96.20;;;;;;5076155;28;20537;-42
2023/11/05 10:10:15;;;;;;;1.93;0.60;;;11.30;1.00;;;;;;5075475;28;20484;-40
2023/11/05 10:12:41;;;;;;;2.03;0.50;;;11.50;1.00;;;;;;5075068;28;20517;-40
2023/11/05 10:15:07;;;;;;;1.83;0.57;;;11.60;1.00;;;;;;5085786;28;20501;-40
2023/11/05 10:17:33;;;;;;;2.50;0.43;;;11.30;1.00;;;;;;5095342;28;20232;-42
2023/11/05 10:19:59;;;;;;;2.60;0.80;;;11.00;99.90;;;;;;5094441;28;20439;-41
2023/11/05 10:22:26;;;;;;;0.93;0.57;;;11.10;1.00;;;;;;5093649;28;20291;-40
2023/11/05 10:24:52;;;;;;;2.73;0.63;;;11.30;99.90;;;;;;5093135;28;20493;-42
2023/11/05 10:27:37;;;;;;;1.87;0.70;;;11.70;95.70;;;;;;5093774;28;20517;-40
2023/11/05 10:30:05;;;;;;;3.37;0.83;;;12.40;1.00;;;;;;5094273;28;20192;-40
2023/11/05 10:32:32;;;;;;;1.00;0.47;;;12.70;1.00;;;;;;5076496;28;20435;-41
2023/11/05 10:34:59;;;;;;;2.40;0.87;;;12.80;1.00;;;;;;5075746;28;20438;-43
2023/11/05 10:37:24;;;;;;;1.00;0.43;;;12.80;1.00;;;;;;5075448;28;20470;-39
2023/11/05 10:39:50;;;;;;;1.63;0.40;;;13.50;1.00;;;;;;5085152;28;20879;-39
2023/11/05 10:42:16;;;;;;;0.80;0.40;;;13.90;1.00;;;;;;5074820;28;20180;-41
2023/11/05 10:44:47;;;;;;;1.37;0.80;;;13.80;1.00;;;;;;5093992;28;20257;-39
2023/11/05 10:47:14;;;;;;;1.10;0.50;;;13.60;1.00;;;;;;5092373;28;20434;-40
2023/11/05 10:49:40;;;;;;;0.97;0.50;;;13.20;1.00;;;;;;5073596;28;20461;-39
2023/11/05 10:52:07;;;;;;;1.17;0.80;;;13.00;99.90;;;;;;5093325;28;20431;-39
2023/11/05 10:54:34;;;;;;;1.33;0.60;;;12.80;1.00;;;;;;5072882;28;20449;-39
2023/11/05 10:56:59;;;;;;;1.63;0.77;;;12.60;99.90;;;;;;5091912;28;20729;-40
2023/11/05 10:59:37;;;;;;;1.17;0.40;;;12.70;99.90;;;;;;5090022;28;20906;-39
2023/11/05 11:02:06;;;;;;;0.90;0.40;;;13.20;1.00;;;;;;5079532;28;20437;-38
2023/11/05 11:04:32;;;;;;;1.50;0.73;;;13.50;99.90;;;;;;5075451;28;20524;-40
2023/11/05 11:06:58;;;;;;;0.80;0.40;;;13.70;1.00;;;;;;5091483;28;20434;-39
2023/11/05 11:09:27;;;;;;;0.90;0.40;;;14.20;1.00;;;;;;5074807;28;20816;-42
2023/11/05 11:11:59;;;;;;;1.00;0.50;;;14.40;92.80;;;;;;5075381;28;20721;-42
2023/11/05 11:14:25;;;;;;;1.07;0.40;;;14.10;47.70;;;;;;5070886;28;20454;-41
2023/11/05 11:16:51;;;;;;;1.10;0.50;;;13.60;99.90;;;;;;5087419;28;20454;-39
2023/11/05 11:19:21;;;;;;;0.90;0.47;;;13.20;99.90;;;;;;5067282;28;20505;-39
2023/11/05 11:22:01;;;;;;;1.13;0.50;;;12.80;99.90;;;;;;5092348;28;20513;-40
2023/11/05 11:24:36;;;;;;;3.80;0.50;;;13.00;99.90;;;;;;5094320;28;20426;-38
2023/11/05 11:27:04;;;;;;;1.30;0.70;;;13.00;99.90;;;;;;5093787;28;20990;-38
2023/11/05 11:29:32;;;;;;;4.20;0.70;;;13.20;1.00;;;;;;5094445;28;20766;-38
2023/11/05 11:31:58;;;;;;;1.00;0.60;;;13.00;1.00;;;;;;5094338;28;20406;-40
2023/11/05 11:34:25;;;;;;;3.10;0.60;;;12.80;1.00;;;;;;5077736;28;20506;-40
2023/11/05 11:37:01;;;;;;;0.90;0.40;;;12.80;1.00;;;;;;5091714;28;20250;-41
2023/11/05 11:39:28;;;;;;;1.40;0.73;;;13.30;99.90;;;;;;5088135;28;20552;-38
2023/11/05 11:41:54;;;;;;;2.20;0.60;;;13.90;99.90;;;;;;5093745;28;20426;-41
2023/11/05 11:44:20;;;;;;;0.97;0.37;;;13.40;1.00;;;;;;5077713;28;20718;-40
2023/11/05 11:46:49;;;;;;;1.30;0.80;;;13.60;99.90;;;;;;5096725;28;20712;-41
2023/11/05 11:49:15;;;;;;;1.73;0.57;;;13.50;44.90;;;;;;5061377;28;20417;-39
2023/11/05 11:51:41;;;;;;;1.03;0.50;;;13.00;1.00;;;;;;5096354;28;20847;-41
2023/11/05 11:54:09;;;;;;;1.33;0.60;;;12.50;99.90;;;;;;5095871;28;20434;-39
2023/11/05 11:56:35;;;;;;;1.00;0.57;;;12.30;1.00;;;;;;5096331;28;20418;-38
2023/11/05 11:59:07;;;;;;;1.10;0.37;;;12.20;99.90;;;;;;5077273;28;20715;-39
2023/11/05 12:01:38;;;;;;;1.00;0.60;;;12.40;99.90;;;;;;5096356;28;20645;-40
2023/11/05 12:04:07;;;;;;;1.83;0.60;;;12.40;99.90;;;;;;5095997;28;20411;-38
2023/11/05 12:06:33;;;;;;;1.53;0.50;;;12.40;99.90;;;;;;5076365;28;20652;-40
2023/11/05 12:08:59;;;;;;;1.60;0.80;;;12.30;99.90;;;;;;5076966;28;20533;-37
2023/11/05 12:11:32;;;;;;;0.80;0.40;;;12.30;99.90;;;;;;5095665;28;20828;-37
2023/11/05 12:14:01;;;;;;;1.30;0.60;;;12.30;1.00;;;;;;5059216;28;20208;-40
2023/11/05 12:16:27;;;;;;;1.30;0.50;;;12.00;1.00;;;;;;5072577;28;20677;-42
2023/11/05 12:18:53;;;;;;;1.30;0.90;;;11.90;99.90;;;;;;5095656;28;20422;-39
2023/11/05 12:21:20;;;;;;;1.10;0.57;;;11.80;99.90;;;;;;5094221;28;20245;-38
2023/11/05 12:23:47;;;;;;;1.77;0.60;;;11.60;1.00;;;;;;5085661;28;20186;-39
2023/11/05 12:26:16;;;;;;;1.87;0.60;;;11.40;99.90;;;;;;5095662;28;20490;-39
2023/11/05 12:28:43;;;;;;;1.90;0.50;;;11.30;1.00;;;;;;5080841;28;20457;-39
2023/11/05 12:31:09;;;;;;;1.00;0.47;;;11.30;1.00;;;;;;5081102;28;20422;-40
2023/11/05 12:33:35;;;;;;;1.00;0.57;;;11.30;1.00;;;;;;5077985;28;20528;-40
2023/11/05 12:36:01;;;;;;;1.57;0.50;;;11.60;1.00;;;;;;5077865;28;20187;-41
2023/11/05 12:38:27;;;;;;;1.37;0.40;;;11.80;99.90;;;;;;5090461;28;20475;-39
2023/11/05 12:40:53;;;;;;;1.17;0.60;;;12.30;1.00;;;;;;5091967;28;20478;-42
2023/11/05 12:43:21;;;;;;;1.63;0.50;;;12.50;99.90;;;;;;5096362;28;20275;-39
2023/11/05 12:45:47;;;;;;;3.60;0.63;;;12.60;99.90;;;;;;5094592;28;20248;-40
2023/11/05 12:48:13;;;;;;;1.83;0.90;;;12.70;99.90;;;;;;5094672;28;20469;-41
2023/11/05 12:50:39;;;;;;;1.50;0.80;;;12.60;99.90;;;;;;5093291;28;20283;-41
2023/11/05 12:53:05;;;;;;;1.27;0.90;;;12.40;99.90;;;;;;5094370;28;20196;-39